sensor_id;sensor_type;location;lat;lon;timestamp;pressure;altitude;pressure_sealevel;temperature;humidity
61337;BME280;47212;41.326;2.104;2022-10-16T00:03:59;101475.38;;;21.98;78.92
61337;BME280;47212;41.326;2.104;2022-10-16T00:09:05;101466.56;;;21.96;78.92
61337;BME280;47212;41.326;2.104;2022-10-16T00:14:11;101469.50;;;21.91;78.51
61337;BME280;47212;41.326;2.104;2022-10-16T00:19:13;101467.69;;;21.86;78.34
61337;BME280;47212;41.326;2.104;2022-10-16T00:24:15;101457.38;;;21.78;78.48
61337;BME280;47212;41.326;2.104;2022-10-16T00:29:20;101453.94;;;21.73;78.41
61337;BME280;47212;41.326;2.104;2022-10-16T00:34:23;101465.19;;;21.68;78.26
61337;BME280;47212;41.326;2.104;2022-10-16T00:39:33;101451.44;;;21.62;78.61
61337;BME280;47212;41.326;2.104;2022-10-16T00:44:54;101451.25;;;21.59;78.59
61337;BME280;47212;41.326;2.104;2022-10-16T00:50:08;101444.72;;;21.55;78.59
61337;BME280;47212;41.326;2.104;2022-10-16T00:55:14;101432.31;;;21.52;78.49
61337;BME280;47212;41.326;2.104;2022-10-16T01:05:12;101428.22;;;21.81;78.12
61337;BME280;47212;41.326;2.104;2022-10-16T01:10:57;101428.13;;;21.63;77.80
61337;BME280;47212;41.326;2.104;2022-10-16T01:16:05;101441.63;;;21.56;77.86
61337;BME280;47212;41.326;2.104;2022-10-16T01:21:29;101440.13;;;21.50;77.33
61337;BME280;47212;41.326;2.104;2022-10-16T01:42:42;101427.47;;;21.27;77.99
61337;BME280;47212;41.326;2.104;2022-10-16T01:47:49;101422.56;;;21.24;78.01
61337;BME280;47212;41.326;2.104;2022-10-16T01:53:02;101433.66;;;21.24;78.39
61337;BME280;47212;41.326;2.104;2022-10-16T01:58:07;101435.06;;;21.21;78.32
61337;BME280;47212;41.326;2.104;2022-10-16T02:03:20;101442.06;;;21.19;78.46
61337;BME280;47212;41.326;2.104;2022-10-16T02:08:24;101457.03;;;21.18;78.65
61337;BME280;47212;41.326;2.104;2022-10-16T02:13:48;101467.63;;;21.16;79.44
61337;BME280;47212;41.326;2.104;2022-10-16T02:18:59;101466.47;;;21.17;79.15
61337;BME280;47212;41.326;2.104;2022-10-16T02:24:12;101460.94;;;21.17;79.72
61337;BME280;47212;41.326;2.104;2022-10-16T02:29:18;101458.66;;;21.19;79.50
61337;BME280;47212;41.326;2.104;2022-10-16T02:34:24;101434.56;;;21.19;79.86
61337;BME280;47212;41.326;2.104;2022-10-16T02:39:28;101432.63;;;21.20;79.78
61337;BME280;47212;41.326;2.104;2022-10-16T02:44:32;101425.13;;;21.20;79.84
61337;BME280;47212;41.326;2.104;2022-10-16T02:49:34;101431.00;;;21.19;79.87
61337;BME280;47212;41.326;2.104;2022-10-16T02:54:37;101428.22;;;21.19;80.02
61337;BME280;47212;41.326;2.104;2022-10-16T03:05:16;101426.91;;;21.16;80.46
61337;BME280;47212;41.326;2.104;2022-10-16T03:10:26;101421.19;;;21.13;80.68
61337;BME280;47212;41.326;2.104;2022-10-16T03:15:29;101413.19;;;21.11;80.64
61337;BME280;47212;41.326;2.104;2022-10-16T03:20:35;101409.59;;;21.11;80.81
61337;BME280;47212;41.326;2.104;2022-10-16T03:25:41;101418.72;;;21.11;80.81
61337;BME280;47212;41.326;2.104;2022-10-16T03:30:53;101416.28;;;21.10;81.08
61337;BME280;47212;41.326;2.104;2022-10-16T03:36:01;101414.47;;;21.05;80.94
61337;BME280;47212;41.326;2.104;2022-10-16T03:41:09;101408.75;;;21.02;81.00
61337;BME280;47212;41.326;2.104;2022-10-16T03:46:14;101404.97;;;20.97;80.92
61337;BME280;47212;41.326;2.104;2022-10-16T03:51:23;101407.88;;;20.92;81.04
61337;BME280;47212;41.326;2.104;2022-10-16T03:56:44;101431.47;;;20.90;81.17
61337;BME280;47212;41.326;2.104;2022-10-16T04:01:49;101434.84;;;20.87;81.30
61337;BME280;47212;41.326;2.104;2022-10-16T04:06:56;101441.84;;;20.84;81.55
61337;BME280;47212;41.326;2.104;2022-10-16T04:12:00;101451.88;;;20.80;81.47
61337;BME280;47212;41.326;2.104;2022-10-16T04:17:08;101444.19;;;20.77;81.77
61337;BME280;47212;41.326;2.104;2022-10-16T04:22:20;101453.75;;;20.71;81.84
61337;BME280;47212;41.326;2.104;2022-10-16T04:27:28;101455.00;;;20.65;81.45
61337;BME280;47212;41.326;2.104;2022-10-16T04:32:38;101456.56;;;20.57;81.68
61337;BME280;47212;41.326;2.104;2022-10-16T04:38:09;101463.03;;;20.53;82.04
61337;BME280;47212;41.326;2.104;2022-10-16T04:43:14;101470.31;;;20.49;81.93
61337;BME280;47212;41.326;2.104;2022-10-16T04:48:18;101464.09;;;20.43;81.84
61337;BME280;47212;41.326;2.104;2022-10-16T04:53:23;101466.66;;;20.40;81.98
61337;BME280;47212;41.326;2.104;2022-10-16T04:58:35;101468.38;;;20.35;82.42
61337;BME280;47212;41.326;2.104;2022-10-16T05:03:49;101480.88;;;20.33;82.33
61337;BME280;47212;41.326;2.104;2022-10-16T05:08:55;101485.59;;;20.32;82.21
61337;BME280;47212;41.326;2.104;2022-10-16T05:14:07;101483.94;;;20.31;82.59
61337;BME280;47212;41.326;2.104;2022-10-16T05:19:18;101486.41;;;20.33;82.84
61337;BME280;47212;41.326;2.104;2022-10-16T05:24:32;101493.88;;;20.32;82.50
61337;BME280;47212;41.326;2.104;2022-10-16T05:29:40;101492.25;;;20.31;82.43
61337;BME280;47212;41.326;2.104;2022-10-16T05:34:57;101498.91;;;20.30;82.89
61337;BME280;47212;41.326;2.104;2022-10-16T05:40:13;101528.81;;;20.28;82.63
61337;BME280;47212;41.326;2.104;2022-10-16T05:45:18;101525.53;;;20.26;82.03
61337;BME280;47212;41.326;2.104;2022-10-16T05:50:37;101518.34;;;20.25;82.01
61337;BME280;47212;41.326;2.104;2022-10-16T05:55:51;101524.50;;;20.22;81.89
61337;BME280;47212;41.326;2.104;2022-10-16T06:01:20;101526.44;;;20.22;81.99
61337;BME280;47212;41.326;2.104;2022-10-16T06:06:31;101533.09;;;20.21;81.75
61337;BME280;47212;41.326;2.104;2022-10-16T06:11:40;101522.88;;;20.21;81.42
61337;BME280;47212;41.326;2.104;2022-10-16T06:16:58;101527.56;;;20.21;81.48
61337;BME280;47212;41.326;2.104;2022-10-16T06:22:20;101530.03;;;20.22;80.96
61337;BME280;47212;41.326;2.104;2022-10-16T06:27:33;101540.47;;;20.25;80.91
61337;BME280;47212;41.326;2.104;2022-10-16T06:33:14;101544.25;;;20.29;80.68
61337;BME280;47212;41.326;2.104;2022-10-16T06:38:43;101551.13;;;20.32;80.21
61337;BME280;47212;41.326;2.104;2022-10-16T06:43:47;101551.31;;;20.35;79.85
61337;BME280;47212;41.326;2.104;2022-10-16T06:48:55;101560.06;;;20.43;79.40
61337;BME280;47212;41.326;2.104;2022-10-16T06:53:59;101560.44;;;20.50;78.93
61337;BME280;47212;41.326;2.104;2022-10-16T06:59:19;101568.34;;;20.56;78.23
61337;BME280;47212;41.326;2.104;2022-10-16T07:04:27;101578.97;;;20.63;77.82
61337;BME280;47212;41.326;2.104;2022-10-16T07:09:44;101585.91;;;20.74;77.66
61337;BME280;47212;41.326;2.104;2022-10-16T07:14:53;101588.69;;;20.74;77.63
61337;BME280;47212;41.326;2.104;2022-10-16T07:20:25;101595.34;;;20.73;77.61
61337;BME280;47212;41.326;2.104;2022-10-16T07:25:36;101597.59;;;20.71;77.62
61337;BME280;47212;41.326;2.104;2022-10-16T07:30:54;101609.69;;;20.75;77.73
61337;BME280;47212;41.326;2.104;2022-10-16T07:36:05;101610.22;;;21.27;76.02
61337;BME280;47212;41.326;2.104;2022-10-16T07:41:20;101638.06;;;21.89;74.22
61337;BME280;47212;41.326;2.104;2022-10-16T07:46:30;101624.69;;;22.53;72.21
61337;BME280;47212;41.326;2.104;2022-10-16T07:52:01;101637.28;;;23.16;70.53
61337;BME280;47212;41.326;2.104;2022-10-16T07:57:11;101646.63;;;23.46;69.45
61337;BME280;47212;41.326;2.104;2022-10-16T08:02:19;101646.94;;;23.36;69.63
61337;BME280;47212;41.326;2.104;2022-10-16T08:07:27;101645.34;;;23.61;68.84
61337;BME280;47212;41.326;2.104;2022-10-16T08:12:32;101648.38;;;24.02;68.13
61337;BME280;47212;41.326;2.104;2022-10-16T08:17:41;101659.66;;;23.97;68.14
61337;BME280;47212;41.326;2.104;2022-10-16T08:22:47;101664.78;;;23.78;69.08
61337;BME280;47212;41.326;2.104;2022-10-16T08:27:52;101676.38;;;23.54;69.65
61337;BME280;47212;41.326;2.104;2022-10-16T08:33:04;101677.00;;;23.34;69.58
61337;BME280;47212;41.326;2.104;2022-10-16T08:38:11;101695.44;;;23.21;70.14
61337;BME280;47212;41.326;2.104;2022-10-16T08:48:54;101683.28;;;23.57;68.42
61337;BME280;47212;41.326;2.104;2022-10-16T08:59:47;101688.66;;;23.62;68.95
61337;BME280;47212;41.326;2.104;2022-10-16T09:05:17;101691.94;;;23.64;69.10
61337;BME280;47212;41.326;2.104;2022-10-16T09:10:37;101696.50;;;23.60;68.88
61337;BME280;47212;41.326;2.104;2022-10-16T09:21:26;101705.00;;;23.80;69.65
61337;BME280;47212;41.326;2.104;2022-10-16T09:26:36;101712.75;;;24.48;68.23
61337;BME280;47212;41.326;2.104;2022-10-16T09:31:48;101706.44;;;25.35;65.96
61337;BME280;47212;41.326;2.104;2022-10-16T09:37:05;101719.69;;;26.34;63.21
61337;BME280;47212;41.326;2.104;2022-10-16T09:42:35;101718.97;;;27.07;61.24
61337;BME280;47212;41.326;2.104;2022-10-16T09:48:00;101723.09;;;26.64;62.66
61337;BME280;47212;41.326;2.104;2022-10-16T09:53:14;101714.84;;;26.10;64.50
61337;BME280;47212;41.326;2.104;2022-10-16T09:58:24;101726.97;;;25.73;66.45
61337;BME280;47212;41.326;2.104;2022-10-16T10:03:41;101732.00;;;25.37;67.37
61337;BME280;47212;41.326;2.104;2022-10-16T10:09:06;101717.44;;;25.53;68.31
61337;BME280;47212;41.326;2.104;2022-10-16T10:14:46;101723.00;;;25.94;67.07
61337;BME280;47212;41.326;2.104;2022-10-16T10:31:06;101719.28;;;26.81;64.38
61337;BME280;47212;41.326;2.104;2022-10-16T10:36:33;101722.97;;;27.46;62.58
61337;BME280;47212;41.326;2.104;2022-10-16T10:41:56;101730.22;;;27.35;62.37
61337;BME280;47212;41.326;2.104;2022-10-16T10:53:24;101730.66;;;26.51;64.87
61337;BME280;47212;41.326;2.104;2022-10-16T10:59:02;101718.53;;;26.02;65.84
61337;BME280;47212;41.326;2.104;2022-10-16T11:10:09;101718.56;;;26.47;65.82
61337;BME280;47212;41.326;2.104;2022-10-16T11:15:34;101713.59;;;26.20;66.71
61337;BME280;47212;41.326;2.104;2022-10-16T11:20:57;101717.75;;;26.71;65.92
61337;BME280;47212;41.326;2.104;2022-10-16T11:26:35;101704.22;;;27.46;62.85
61337;BME280;47212;41.326;2.104;2022-10-16T11:31:52;101699.63;;;27.78;62.59
61337;BME280;47212;41.326;2.104;2022-10-16T11:37:50;101703.47;;;28.02;61.14
61337;BME280;47212;41.326;2.104;2022-10-16T11:43:55;101692.16;;;27.70;61.78
61337;BME280;47212;41.326;2.104;2022-10-16T11:49:12;101687.47;;;27.74;61.53
61337;BME280;47212;41.326;2.104;2022-10-16T11:55:09;101687.38;;;27.99;60.95
61337;BME280;47212;41.326;2.104;2022-10-16T12:00:37;101680.88;;;27.95;61.37
61337;BME280;47212;41.326;2.104;2022-10-16T12:10:47;101675.72;;;28.40;60.69
61337;BME280;47212;41.326;2.104;2022-10-16T12:15:51;101674.66;;;28.01;61.38
61337;BME280;47212;41.326;2.104;2022-10-16T12:21:04;101687.34;;;27.43;62.87
61337;BME280;47212;41.326;2.104;2022-10-16T12:26:51;101669.38;;;27.44;63.24
61337;BME280;47212;41.326;2.104;2022-10-16T12:32:38;101674.38;;;27.50;62.66
61337;BME280;47212;41.326;2.104;2022-10-16T12:38:17;101674.91;;;27.68;61.92
61337;BME280;47212;41.326;2.104;2022-10-16T12:48:40;101683.66;;;27.79;62.19
61337;BME280;47212;41.326;2.104;2022-10-16T13:06:14;101677.84;;;26.95;65.87
61337;BME280;47212;41.326;2.104;2022-10-16T13:12:18;101668.75;;;26.86;66.35
61337;BME280;47212;41.326;2.104;2022-10-16T13:28:47;101684.25;;;26.47;67.58
61337;BME280;47212;41.326;2.104;2022-10-16T13:33:57;101679.22;;;26.40;68.10
61337;BME280;47212;41.326;2.104;2022-10-16T13:39:29;101680.84;;;26.41;67.90
61337;BME280;47212;41.326;2.104;2022-10-16T13:44:45;101679.53;;;26.26;68.17
61337;BME280;47212;41.326;2.104;2022-10-16T13:50:09;101676.34;;;26.03;69.05
61337;BME280;47212;41.326;2.104;2022-10-16T14:00:33;101670.19;;;26.10;69.21
61337;BME280;47212;41.326;2.104;2022-10-16T14:06:20;101669.94;;;26.03;68.63
61337;BME280;47212;41.326;2.104;2022-10-16T14:11:32;101664.66;;;25.89;66.85
61337;BME280;47212;41.326;2.104;2022-10-16T14:16:41;101666.16;;;25.87;68.34
61337;BME280;47212;41.326;2.104;2022-10-16T14:21:54;101669.38;;;25.77;68.15
61337;BME280;47212;41.326;2.104;2022-10-16T14:27:28;101677.81;;;25.68;68.85
61337;BME280;47212;41.326;2.104;2022-10-16T14:32:58;101660.44;;;25.62;69.29
61337;BME280;47212;41.326;2.104;2022-10-16T14:38:28;101659.94;;;25.69;69.37
61337;BME280;47212;41.326;2.104;2022-10-16T14:43:38;101652.50;;;25.52;70.37
61337;BME280;47212;41.326;2.104;2022-10-16T14:49:20;101674.19;;;25.47;71.60
61337;BME280;47212;41.326;2.104;2022-10-16T14:54:28;101666.03;;;25.42;71.02
61337;BME280;47212;41.326;2.104;2022-10-16T14:59:40;101668.75;;;25.50;71.10
61337;BME280;47212;41.326;2.104;2022-10-16T15:04:50;101669.31;;;25.44;71.35
61337;BME280;47212;41.326;2.104;2022-10-16T15:09:57;101669.53;;;25.38;71.68
61337;BME280;47212;41.326;2.104;2022-10-16T15:15:35;101676.66;;;25.27;72.92
61337;BME280;47212;41.326;2.104;2022-10-16T15:20:47;101686.56;;;25.16;73.06
61337;BME280;47212;41.326;2.104;2022-10-16T15:26:17;101684.50;;;25.04;73.56
61337;BME280;47212;41.326;2.104;2022-10-16T15:31:24;101684.34;;;25.01;74.02
61337;BME280;47212;41.326;2.104;2022-10-16T15:36:36;101678.50;;;24.85;74.50
61337;BME280;47212;41.326;2.104;2022-10-16T15:41:49;101690.47;;;24.86;74.95
61337;BME280;47212;41.326;2.104;2022-10-16T15:46:57;101690.66;;;24.81;75.89
61337;BME280;47212;41.326;2.104;2022-10-16T15:52:03;101690.09;;;24.66;75.75
61337;BME280;47212;41.326;2.104;2022-10-16T15:57:11;101689.34;;;24.49;76.36
61337;BME280;47212;41.326;2.104;2022-10-16T16:02:18;101689.72;;;24.38;77.12
61337;BME280;47212;41.326;2.104;2022-10-16T16:07:20;101690.88;;;24.29;77.32
61337;BME280;47212;41.326;2.104;2022-10-16T16:12:31;101695.78;;;24.32;77.25
61337;BME280;47212;41.326;2.104;2022-10-16T16:17:41;101708.72;;;24.28;77.68
61337;BME280;47212;41.326;2.104;2022-10-16T16:22:48;101719.97;;;24.23;78.17
61337;BME280;47212;41.326;2.104;2022-10-16T16:28:02;101735.22;;;24.17;78.33
61337;BME280;47212;41.326;2.104;2022-10-16T16:33:23;101736.38;;;24.07;78.98
61337;BME280;47212;41.326;2.104;2022-10-16T16:46:01;101722.66;;;23.93;79.82
61337;BME280;47212;41.326;2.104;2022-10-16T16:51:07;101736.88;;;23.92;79.94
61337;BME280;47212;41.326;2.104;2022-10-16T16:56:27;101737.88;;;23.87;80.27
61337;BME280;47212;41.326;2.104;2022-10-16T17:01:35;101750.78;;;23.83;80.48
61337;BME280;47212;41.326;2.104;2022-10-16T17:06:43;101755.88;;;23.81;81.05
61337;BME280;47212;41.326;2.104;2022-10-16T17:11:51;101762.06;;;23.69;81.25
61337;BME280;47212;41.326;2.104;2022-10-16T17:17:00;101769.25;;;23.62;81.78
61337;BME280;47212;41.326;2.104;2022-10-16T17:22:53;101771.72;;;23.55;82.01
61337;BME280;47212;41.326;2.104;2022-10-16T17:28:16;101793.28;;;23.58;82.56
61337;BME280;47212;41.326;2.104;2022-10-16T17:33:24;101786.59;;;23.59;82.13
61337;BME280;47212;41.326;2.104;2022-10-16T17:38:33;101793.28;;;23.58;82.42
61337;BME280;47212;41.326;2.104;2022-10-16T17:43:43;101804.69;;;23.47;82.95
61337;BME280;47212;41.326;2.104;2022-10-16T17:48:51;101816.56;;;23.39;83.65
61337;BME280;47212;41.326;2.104;2022-10-16T17:54:02;101822.94;;;23.31;83.60
61337;BME280;47212;41.326;2.104;2022-10-16T17:59:11;101832.88;;;23.24;83.92
61337;BME280;47212;41.326;2.104;2022-10-16T18:04:31;101842.16;;;23.19;84.11
61337;BME280;47212;41.326;2.104;2022-10-16T18:09:45;101852.28;;;23.15;85.48
61337;BME280;47212;41.326;2.104;2022-10-16T18:15:13;101861.75;;;23.14;84.49
61337;BME280;47212;41.326;2.104;2022-10-16T18:21:08;101864.03;;;23.12;84.80
61337;BME280;47212;41.326;2.104;2022-10-16T18:26:19;101860.13;;;23.13;84.92
61337;BME280;47212;41.326;2.104;2022-10-16T18:31:34;101872.22;;;23.17;84.76
61337;BME280;47212;41.326;2.104;2022-10-16T18:36:49;101877.78;;;23.17;84.48
61337;BME280;47212;41.326;2.104;2022-10-16T18:42:07;101880.56;;;23.17;84.43
61337;BME280;47212;41.326;2.104;2022-10-16T18:47:16;101887.75;;;23.18;84.65
61337;BME280;47212;41.326;2.104;2022-10-16T18:52:34;101874.03;;;23.22;84.39
61337;BME280;47212;41.326;2.104;2022-10-16T18:57:49;101870.94;;;23.23;85.11
61337;BME280;47212;41.326;2.104;2022-10-16T19:02:55;101882.06;;;23.23;84.55
61337;BME280;47212;41.326;2.104;2022-10-16T19:08:05;101889.25;;;23.24;84.38
61337;BME280;47212;41.326;2.104;2022-10-16T19:13:15;101892.53;;;23.26;84.35
61337;BME280;47212;41.326;2.104;2022-10-16T19:18:26;101902.50;;;23.27;84.32
61337;BME280;47212;41.326;2.104;2022-10-16T19:23:36;101908.81;;;23.19;84.21
61337;BME280;47212;41.326;2.104;2022-10-16T19:28:43;101894.25;;;23.13;84.37
61337;BME280;47212;41.326;2.104;2022-10-16T19:33:53;101896.09;;;23.18;84.28
61337;BME280;47212;41.326;2.104;2022-10-16T19:39:15;101909.31;;;23.21;84.40
61337;BME280;47212;41.326;2.104;2022-10-16T19:44:30;101912.59;;;23.23;84.47
61337;BME280;47212;41.326;2.104;2022-10-16T19:49:43;101915.56;;;23.27;84.26
61337;BME280;47212;41.326;2.104;2022-10-16T19:54:47;101922.44;;;23.29;84.14
61337;BME280;47212;41.326;2.104;2022-10-16T20:00:03;101918.69;;;23.34;83.77
61337;BME280;47212;41.326;2.104;2022-10-16T20:05:10;101932.28;;;23.35;84.42
61337;BME280;47212;41.326;2.104;2022-10-16T20:10:17;101933.09;;;23.36;83.68
61337;BME280;47212;41.326;2.104;2022-10-16T20:15:28;101939.47;;;23.36;83.49
61337;BME280;47212;41.326;2.104;2022-10-16T20:21:26;101938.97;;;23.34;84.46
61337;BME280;47212;41.326;2.104;2022-10-16T20:26:30;101941.75;;;23.34;83.58
61337;BME280;47212;41.326;2.104;2022-10-16T20:31:33;101957.09;;;23.32;83.97
61337;BME280;47212;41.326;2.104;2022-10-16T20:36:41;101949.91;;;23.31;83.72
61337;BME280;47212;41.326;2.104;2022-10-16T20:41:47;101949.91;;;23.31;83.95
61337;BME280;47212;41.326;2.104;2022-10-16T20:46:56;101944.66;;;23.29;84.16
61337;BME280;47212;41.326;2.104;2022-10-16T20:52:09;101928.63;;;23.26;84.24
61337;BME280;47212;41.326;2.104;2022-10-16T20:57:18;101937.59;;;23.23;84.14
61337;BME280;47212;41.326;2.104;2022-10-16T21:02:29;101931.88;;;23.19;83.97
61337;BME280;47212;41.326;2.104;2022-10-16T21:07:35;101932.50;;;23.16;83.87
61337;BME280;47212;41.326;2.104;2022-10-16T21:12:53;101926.13;;;23.16;83.96
61337;BME280;47212;41.326;2.104;2022-10-16T21:18:01;101930.06;;;23.15;83.77
61337;BME280;47212;41.326;2.104;2022-10-16T21:23:12;101941.16;;;23.15;83.42
61337;BME280;47212;41.326;2.104;2022-10-16T21:28:30;101933.97;;;23.14;83.36
61337;BME280;47212;41.326;2.104;2022-10-16T21:33:41;101931.50;;;23.12;83.45
61337;BME280;47212;41.326;2.104;2022-10-16T21:39:17;101940.97;;;23.11;83.14
61337;BME280;47212;41.326;2.104;2022-10-16T21:44:30;101944.06;;;23.10;82.54
61337;BME280;47212;41.326;2.104;2022-10-16T21:50:00;101942.44;;;23.09;82.17
61337;BME280;47212;41.326;2.104;2022-10-16T21:55:07;101951.91;;;23.08;81.93
61337;BME280;47212;41.326;2.104;2022-10-16T22:00:19;101956.44;;;23.04;82.04
61337;BME280;47212;41.326;2.104;2022-10-16T22:05:34;101957.91;;;23.01;81.85
61337;BME280;47212;41.326;2.104;2022-10-16T22:11:09;101956.25;;;23.00;81.58
61337;BME280;47212;41.326;2.104;2022-10-16T22:16:25;101961.31;;;22.98;81.33
61337;BME280;47212;41.326;2.104;2022-10-16T22:21:37;101956.06;;;22.97;81.54
61337;BME280;47212;41.326;2.104;2022-10-16T22:26:42;101966.38;;;22.96;81.21
61337;BME280;47212;41.326;2.104;2022-10-16T22:31:50;101969.47;;;22.95;81.12
61337;BME280;47212;41.326;2.104;2022-10-16T22:37:04;101971.41;;;22.94;80.99
61337;BME280;47212;41.326;2.104;2022-10-16T22:42:11;101980.06;;;22.93;80.93
61337;BME280;47212;41.326;2.104;2022-10-16T22:47:18;101977.28;;;22.93;80.90
61337;BME280;47212;41.326;2.104;2022-10-16T22:52:38;101982.84;;;22.93;81.03
61337;BME280;47212;41.326;2.104;2022-10-16T22:58:10;101999.81;;;22.91;81.30
61337;BME280;47212;41.326;2.104;2022-10-16T23:03:28;102002.28;;;22.93;82.03
61337;BME280;47212;41.326;2.104;2022-10-16T23:08:33;101991.66;;;22.95;81.94
61337;BME280;47212;41.326;2.104;2022-10-16T23:13:52;102015.22;;;22.97;82.33
61337;BME280;47212;41.326;2.104;2022-10-16T23:19:13;102020.44;;;22.99;82.36
61337;BME280;47212;41.326;2.104;2022-10-16T23:24:16;102024.88;;;23.00;82.46
61337;BME280;47212;41.326;2.104;2022-10-16T23:29:22;102023.72;;;23.01;82.38
61337;BME280;47212;41.326;2.104;2022-10-16T23:34:26;102018.19;;;23.01;82.35
61337;BME280;47212;41.326;2.104;2022-10-16T23:40:25;102015.41;;;23.01;82.32
61337;BME280;47212;41.326;2.104;2022-10-16T23:45:36;102039.56;;;23.00;82.50
61337;BME280;47212;41.326;2.104;2022-10-16T23:51:09;102024.38;;;22.98;82.46
61337;BME280;47212;41.326;2.104;2022-10-16T23:56:12;102027.78;;;22.95;82.45
